sensor_id;sensor_type;location;lat;lon;timestamp;temperature;humidity
24904;DHT22;12960;50.322;11.124;2022-08-14T00:00:38;18.40;44.20
24904;DHT22;12960;50.322;11.124;2022-08-14T00:01:39;18.30;13.80
24904;DHT22;12960;50.322;11.124;2022-08-14T00:02:41;18.30;38.70
24904;DHT22;12960;50.322;11.124;2022-08-14T00:03:42;18.30;58.70
24904;DHT22;12960;50.322;11.124;2022-08-14T00:04:43;18.20;81.20
24904;DHT22;12960;50.322;11.124;2022-08-14T00:05:44;18.20;78.50
24904;DHT22;12960;50.322;11.124;2022-08-14T00:06:45;18.20;99.90
24904;DHT22;12960;50.322;11.124;2022-08-14T00:07:48;18.20;98.20
24904;DHT22;12960;50.322;11.124;2022-08-14T00:08:49;18.10;99.90
24904;DHT22;12960;50.322;11.124;2022-08-14T00:09:56;18.10;99.90
24904;DHT22;12960;50.322;11.124;2022-08-14T00:10:57;18.00;99.90
24904;DHT22;12960;50.322;11.124;2022-08-14T00:11:58;17.90;99.90
24904;DHT22;12960;50.322;11.124;2022-08-14T00:12:59;17.90;99.90
24904;DHT22;12960;50.322;11.124;2022-08-14T00:14:03;17.80;99.90
24904;DHT22;12960;50.322;11.124;2022-08-14T00:15:17;17.80;99.90
24904;DHT22;12960;50.322;11.124;2022-08-14T00:16:19;17.80;99.90
24904;DHT22;12960;50.322;11.124;2022-08-14T00:17:23;17.70;99.90
24904;DHT22;12960;50.322;11.124;2022-08-14T00:18:27;17.70;99.90
24904;DHT22;12960;50.322;11.124;2022-08-14T00:19:28;17.70;99.90
24904;DHT22;12960;50.322;11.124;2022-08-14T00:20:31;17.70;99.90
24904;DHT22;12960;50.322;11.124;2022-08-14T00:21:33;17.70;99.90
24904;DHT22;12960;50.322;11.124;2022-08-14T00:22:34;17.70;99.90
24904;DHT22;12960;50.322;11.124;2022-08-14T00:23:35;17.70;99.90
24904;DHT22;12960;50.322;11.124;2022-08-14T00:24:36;17.70;99.90
24904;DHT22;12960;50.322;11.124;2022-08-14T00:25:38;17.60;99.90
24904;DHT22;12960;50.322;11.124;2022-08-14T00:26:39;17.60;99.90
24904;DHT22;12960;50.322;11.124;2022-08-14T00:27:40;17.60;99.90
24904;DHT22;12960;50.322;11.124;2022-08-14T00:28:41;17.60;99.90
24904;DHT22;12960;50.322;11.124;2022-08-14T00:29:42;17.60;99.90
24904;DHT22;12960;50.322;11.124;2022-08-14T00:30:45;17.50;99.90
24904;DHT22;12960;50.322;11.124;2022-08-14T00:31:46;17.60;99.90
24904;DHT22;12960;50.322;11.124;2022-08-14T00:32:47;17.60;99.90
24904;DHT22;12960;50.322;11.124;2022-08-14T00:33:48;17.60;99.90
24904;DHT22;12960;50.322;11.124;2022-08-14T00:34:49;17.60;99.90
24904;DHT22;12960;50.322;11.124;2022-08-14T00:35:51;17.60;99.90
24904;DHT22;12960;50.322;11.124;2022-08-14T00:36:52;17.50;99.90
24904;DHT22;12960;50.322;11.124;2022-08-14T00:37:53;17.60;99.90
24904;DHT22;12960;50.322;11.124;2022-08-14T00:38:54;17.60;99.90
24904;DHT22;12960;50.322;11.124;2022-08-14T00:39:56;17.60;99.90
24904;DHT22;12960;50.322;11.124;2022-08-14T00:40:56;17.60;99.90
24904;DHT22;12960;50.322;11.124;2022-08-14T00:41:58;17.60;99.90
24904;DHT22;12960;50.322;11.124;2022-08-14T00:43:00;17.60;99.90
24904;DHT22;12960;50.322;11.124;2022-08-14T00:44:01;17.60;99.90
24904;DHT22;12960;50.322;11.124;2022-08-14T00:45:10;17.70;99.90
24904;DHT22;12960;50.322;11.124;2022-08-14T00:46:12;17.60;99.90
24904;DHT22;12960;50.322;11.124;2022-08-14T00:47:14;17.70;99.90
24904;DHT22;12960;50.322;11.124;2022-08-14T00:48:18;17.60;99.90
24904;DHT22;12960;50.322;11.124;2022-08-14T00:49:19;17.60;99.90
24904;DHT22;12960;50.322;11.124;2022-08-14T00:50:23;17.60;99.90
24904;DHT22;12960;50.322;11.124;2022-08-14T00:51:24;17.70;99.90
24904;DHT22;12960;50.322;11.124;2022-08-14T00:52:33;17.60;99.90
24904;DHT22;12960;50.322;11.124;2022-08-14T00:53:37;17.60;99.90
24904;DHT22;12960;50.322;11.124;2022-08-14T00:54:43;17.60;99.90
24904;DHT22;12960;50.322;11.124;2022-08-14T00:55:45;17.50;99.90
24904;DHT22;12960;50.322;11.124;2022-08-14T00:56:48;17.50;99.90
24904;DHT22;12960;50.322;11.124;2022-08-14T00:57:49;17.40;99.90
24904;DHT22;12960;50.322;11.124;2022-08-14T00:59:10;17.40;99.90
24904;DHT22;12960;50.322;11.124;2022-08-14T01:00:13;17.40;99.90
24904;DHT22;12960;50.322;11.124;2022-08-14T01:01:15;17.40;99.90
24904;DHT22;12960;50.322;11.124;2022-08-14T01:02:19;17.30;99.90
24904;DHT22;12960;50.322;11.124;2022-08-14T01:03:26;17.30;99.90
24904;DHT22;12960;50.322;11.124;2022-08-14T01:04:34;17.30;99.90
24904;DHT22;12960;50.322;11.124;2022-08-14T01:05:35;17.30;99.90
24904;DHT22;12960;50.322;11.124;2022-08-14T01:06:37;17.20;99.90
24904;DHT22;12960;50.322;11.124;2022-08-14T01:07:41;17.20;99.90
24904;DHT22;12960;50.322;11.124;2022-08-14T01:08:43;17.20;99.90
24904;DHT22;12960;50.322;11.124;2022-08-14T01:09:50;17.20;99.90
24904;DHT22;12960;50.322;11.124;2022-08-14T01:10:53;17.10;99.90
24904;DHT22;12960;50.322;11.124;2022-08-14T01:11:54;17.20;99.90
24904;DHT22;12960;50.322;11.124;2022-08-14T01:12:57;17.20;99.90
24904;DHT22;12960;50.322;11.124;2022-08-14T01:13:58;17.20;99.90
24904;DHT22;12960;50.322;11.124;2022-08-14T01:15:01;17.20;99.90
24904;DHT22;12960;50.322;11.124;2022-08-14T01:16:08;17.20;99.90
24904;DHT22;12960;50.322;11.124;2022-08-14T01:17:10;17.20;99.90
24904;DHT22;12960;50.322;11.124;2022-08-14T01:18:11;17.30;99.90
24904;DHT22;12960;50.322;11.124;2022-08-14T01:19:34;17.30;99.90
24904;DHT22;12960;50.322;11.124;2022-08-14T01:21:08;17.30;99.90
24904;DHT22;12960;50.322;11.124;2022-08-14T01:22:15;17.30;99.90
24904;DHT22;12960;50.322;11.124;2022-08-14T01:23:18;17.30;99.90
24904;DHT22;12960;50.322;11.124;2022-08-14T01:24:19;17.30;99.90
24904;DHT22;12960;50.322;11.124;2022-08-14T01:25:21;17.20;99.90
24904;DHT22;12960;50.322;11.124;2022-08-14T01:26:23;17.20;99.90
24904;DHT22;12960;50.322;11.124;2022-08-14T01:27:25;17.30;99.90
24904;DHT22;12960;50.322;11.124;2022-08-14T01:28:27;17.30;99.90
24904;DHT22;12960;50.322;11.124;2022-08-14T01:29:31;17.30;99.90
24904;DHT22;12960;50.322;11.124;2022-08-14T01:30:38;17.30;99.90
24904;DHT22;12960;50.322;11.124;2022-08-14T01:31:40;17.30;99.90
24904;DHT22;12960;50.322;11.124;2022-08-14T01:32:54;17.20;99.90
24904;DHT22;12960;50.322;11.124;2022-08-14T01:34:00;17.10;99.90
24904;DHT22;12960;50.322;11.124;2022-08-14T01:35:04;17.10;99.90
24904;DHT22;12960;50.322;11.124;2022-08-14T01:36:11;17.10;99.90
24904;DHT22;12960;50.322;11.124;2022-08-14T01:37:12;17.10;99.90
24904;DHT22;12960;50.322;11.124;2022-08-14T01:38:13;17.00;99.90
24904;DHT22;12960;50.322;11.124;2022-08-14T01:39:16;17.00;99.90
24904;DHT22;12960;50.322;11.124;2022-08-14T01:40:21;17.00;99.90
24904;DHT22;12960;50.322;11.124;2022-08-14T01:41:24;17.00;99.90
24904;DHT22;12960;50.322;11.124;2022-08-14T01:42:32;16.90;99.90
24904;DHT22;12960;50.322;11.124;2022-08-14T01:43:41;16.90;99.90
24904;DHT22;12960;50.322;11.124;2022-08-14T01:44:43;16.90;99.90
24904;DHT22;12960;50.322;11.124;2022-08-14T01:45:49;16.80;99.90
24904;DHT22;12960;50.322;11.124;2022-08-14T01:46:53;16.80;99.90
24904;DHT22;12960;50.322;11.124;2022-08-14T01:47:55;16.80;99.90
24904;DHT22;12960;50.322;11.124;2022-08-14T01:48:57;16.80;99.90
24904;DHT22;12960;50.322;11.124;2022-08-14T01:49:58;16.80;99.90
24904;DHT22;12960;50.322;11.124;2022-08-14T01:50:59;16.80;99.90
24904;DHT22;12960;50.322;11.124;2022-08-14T01:52:07;16.70;99.90
24904;DHT22;12960;50.322;11.124;2022-08-14T01:53:09;16.70;99.90
24904;DHT22;12960;50.322;11.124;2022-08-14T01:54:14;16.70;99.90
24904;DHT22;12960;50.322;11.124;2022-08-14T01:55:17;16.70;99.90
24904;DHT22;12960;50.322;11.124;2022-08-14T01:56:20;16.60;99.90
24904;DHT22;12960;50.322;11.124;2022-08-14T01:57:22;16.60;99.90
24904;DHT22;12960;50.322;11.124;2022-08-14T01:58:24;16.50;99.90
24904;DHT22;12960;50.322;11.124;2022-08-14T01:59:29;16.50;99.90
24904;DHT22;12960;50.322;11.124;2022-08-14T02:00:34;16.50;99.90
24904;DHT22;12960;50.322;11.124;2022-08-14T02:01:44;16.50;99.90
24904;DHT22;12960;50.322;11.124;2022-08-14T02:02:46;16.50;99.90
24904;DHT22;12960;50.322;11.124;2022-08-14T02:03:47;16.50;99.90
24904;DHT22;12960;50.322;11.124;2022-08-14T02:04:48;16.50;99.90
24904;DHT22;12960;50.322;11.124;2022-08-14T02:05:49;16.60;99.90
24904;DHT22;12960;50.322;11.124;2022-08-14T02:06:51;16.50;99.90
24904;DHT22;12960;50.322;11.124;2022-08-14T02:07:52;16.60;99.90
24904;DHT22;12960;50.322;11.124;2022-08-14T02:08:53;16.50;99.90
24904;DHT22;12960;50.322;11.124;2022-08-14T02:09:54;16.50;99.90
24904;DHT22;12960;50.322;11.124;2022-08-14T02:10:58;16.60;99.90
24904;DHT22;12960;50.322;11.124;2022-08-14T02:12:18;16.50;99.90
24904;DHT22;12960;50.322;11.124;2022-08-14T02:13:19;16.50;99.90
24904;DHT22;12960;50.322;11.124;2022-08-14T02:14:20;16.40;99.90
24904;DHT22;12960;50.322;11.124;2022-08-14T02:15:26;16.40;99.90
24904;DHT22;12960;50.322;11.124;2022-08-14T02:16:28;16.40;99.90
24904;DHT22;12960;50.322;11.124;2022-08-14T02:17:36;16.40;99.90
24904;DHT22;12960;50.322;11.124;2022-08-14T02:18:38;16.40;99.90
24904;DHT22;12960;50.322;11.124;2022-08-14T02:19:42;16.50;99.90
24904;DHT22;12960;50.322;11.124;2022-08-14T02:20:46;16.50;99.90
24904;DHT22;12960;50.322;11.124;2022-08-14T02:21:51;16.50;99.90
24904;DHT22;12960;50.322;11.124;2022-08-14T02:22:54;16.50;99.90
24904;DHT22;12960;50.322;11.124;2022-08-14T02:23:55;16.60;99.90
24904;DHT22;12960;50.322;11.124;2022-08-14T02:24:56;16.60;99.90
24904;DHT22;12960;50.322;11.124;2022-08-14T02:26:18;16.60;99.90
24904;DHT22;12960;50.322;11.124;2022-08-14T02:27:19;16.70;99.90
24904;DHT22;12960;50.322;11.124;2022-08-14T02:28:24;16.70;99.90
24904;DHT22;12960;50.322;11.124;2022-08-14T02:29:27;16.80;99.90
24904;DHT22;12960;50.322;11.124;2022-08-14T02:30:28;16.80;99.90
24904;DHT22;12960;50.322;11.124;2022-08-14T02:31:32;16.80;99.90
24904;DHT22;12960;50.322;11.124;2022-08-14T02:32:33;16.90;99.90
24904;DHT22;12960;50.322;11.124;2022-08-14T02:33:34;16.90;99.90
24904;DHT22;12960;50.322;11.124;2022-08-14T02:34:36;16.90;99.90
24904;DHT22;12960;50.322;11.124;2022-08-14T02:35:42;16.80;99.90
24904;DHT22;12960;50.322;11.124;2022-08-14T02:36:44;16.80;99.90
24904;DHT22;12960;50.322;11.124;2022-08-14T02:37:47;16.90;99.90
24904;DHT22;12960;50.322;11.124;2022-08-14T02:38:48;16.80;99.90
24904;DHT22;12960;50.322;11.124;2022-08-14T02:39:53;16.80;99.90
24904;DHT22;12960;50.322;11.124;2022-08-14T02:40:54;16.80;99.90
24904;DHT22;12960;50.322;11.124;2022-08-14T02:41:56;16.70;99.90
24904;DHT22;12960;50.322;11.124;2022-08-14T02:42:57;16.70;99.90
24904;DHT22;12960;50.322;11.124;2022-08-14T02:43:59;16.70;99.90
24904;DHT22;12960;50.322;11.124;2022-08-14T02:45:03;16.70;99.90
24904;DHT22;12960;50.322;11.124;2022-08-14T02:46:07;16.70;99.90
24904;DHT22;12960;50.322;11.124;2022-08-14T02:47:12;16.60;99.90
24904;DHT22;12960;50.322;11.124;2022-08-14T02:48:15;16.60;99.90
24904;DHT22;12960;50.322;11.124;2022-08-14T02:49:17;16.60;99.90
24904;DHT22;12960;50.322;11.124;2022-08-14T02:50:18;16.60;99.90
24904;DHT22;12960;50.322;11.124;2022-08-14T02:51:19;16.60;99.90
24904;DHT22;12960;50.322;11.124;2022-08-14T02:52:20;16.60;99.90
24904;DHT22;12960;50.322;11.124;2022-08-14T02:53:22;16.60;99.90
24904;DHT22;12960;50.322;11.124;2022-08-14T02:54:24;16.60;99.90
24904;DHT22;12960;50.322;11.124;2022-08-14T02:55:29;16.60;99.90
24904;DHT22;12960;50.322;11.124;2022-08-14T02:56:32;16.50;99.90
24904;DHT22;12960;50.322;11.124;2022-08-14T02:57:33;16.60;99.90
24904;DHT22;12960;50.322;11.124;2022-08-14T02:58:36;16.50;99.90
24904;DHT22;12960;50.322;11.124;2022-08-14T02:59:39;16.50;99.90
24904;DHT22;12960;50.322;11.124;2022-08-14T03:00:43;16.40;99.90
24904;DHT22;12960;50.322;11.124;2022-08-14T03:01:44;16.40;99.90
24904;DHT22;12960;50.322;11.124;2022-08-14T03:02:45;16.40;99.90
24904;DHT22;12960;50.322;11.124;2022-08-14T03:03:47;16.40;99.90
24904;DHT22;12960;50.322;11.124;2022-08-14T03:04:49;16.40;99.90
24904;DHT22;12960;50.322;11.124;2022-08-14T03:05:51;16.30;99.90
24904;DHT22;12960;50.322;11.124;2022-08-14T03:06:53;16.30;99.90
24904;DHT22;12960;50.322;11.124;2022-08-14T03:08:11;16.30;99.90
24904;DHT22;12960;50.322;11.124;2022-08-14T03:09:13;16.20;99.90
24904;DHT22;12960;50.322;11.124;2022-08-14T03:10:14;16.20;99.90
24904;DHT22;12960;50.322;11.124;2022-08-14T03:11:15;16.20;99.90
24904;DHT22;12960;50.322;11.124;2022-08-14T03:12:16;16.10;99.90
24904;DHT22;12960;50.322;11.124;2022-08-14T03:13:18;16.10;99.90
24904;DHT22;12960;50.322;11.124;2022-08-14T03:14:19;16.10;99.90
24904;DHT22;12960;50.322;11.124;2022-08-14T03:15:22;16.10;99.90
24904;DHT22;12960;50.322;11.124;2022-08-14T03:16:27;16.00;99.90
24904;DHT22;12960;50.322;11.124;2022-08-14T03:17:35;16.00;99.90
24904;DHT22;12960;50.322;11.124;2022-08-14T03:18:37;16.00;99.90
24904;DHT22;12960;50.322;11.124;2022-08-14T03:19:44;15.90;99.90
24904;DHT22;12960;50.322;11.124;2022-08-14T03:20:45;16.00;99.90
24904;DHT22;12960;50.322;11.124;2022-08-14T03:21:46;16.00;99.90
24904;DHT22;12960;50.322;11.124;2022-08-14T03:22:50;16.00;99.90
24904;DHT22;12960;50.322;11.124;2022-08-14T03:23:53;16.00;99.90
24904;DHT22;12960;50.322;11.124;2022-08-14T03:25:09;16.00;99.90
24904;DHT22;12960;50.322;11.124;2022-08-14T03:26:17;16.00;99.90
24904;DHT22;12960;50.322;11.124;2022-08-14T03:27:19;15.90;99.90
24904;DHT22;12960;50.322;11.124;2022-08-14T03:28:26;15.90;99.90
24904;DHT22;12960;50.322;11.124;2022-08-14T03:29:29;15.80;99.90
24904;DHT22;12960;50.322;11.124;2022-08-14T03:30:30;15.80;99.90
24904;DHT22;12960;50.322;11.124;2022-08-14T03:31:31;15.80;99.90
24904;DHT22;12960;50.322;11.124;2022-08-14T03:32:32;15.80;99.90
24904;DHT22;12960;50.322;11.124;2022-08-14T03:33:34;15.80;99.90
24904;DHT22;12960;50.322;11.124;2022-08-14T03:34:40;15.80;99.90
24904;DHT22;12960;50.322;11.124;2022-08-14T03:35:45;15.80;99.90
24904;DHT22;12960;50.322;11.124;2022-08-14T03:36:46;15.80;99.90
24904;DHT22;12960;50.322;11.124;2022-08-14T03:37:50;15.80;99.90
24904;DHT22;12960;50.322;11.124;2022-08-14T03:39:00;15.80;99.90
24904;DHT22;12960;50.322;11.124;2022-08-14T03:40:01;15.70;99.90
24904;DHT22;12960;50.322;11.124;2022-08-14T03:41:02;15.70;99.90
24904;DHT22;12960;50.322;11.124;2022-08-14T03:42:03;15.70;99.90
24904;DHT22;12960;50.322;11.124;2022-08-14T03:43:06;15.70;99.90
24904;DHT22;12960;50.322;11.124;2022-08-14T03:44:07;15.70;99.90
24904;DHT22;12960;50.322;11.124;2022-08-14T03:45:08;15.70;99.90
24904;DHT22;12960;50.322;11.124;2022-08-14T03:46:13;15.70;99.90
24904;DHT22;12960;50.322;11.124;2022-08-14T03:47:15;15.70;99.90
24904;DHT22;12960;50.322;11.124;2022-08-14T03:48:17;15.70;99.90
24904;DHT22;12960;50.322;11.124;2022-08-14T03:49:22;15.70;99.90
24904;DHT22;12960;50.322;11.124;2022-08-14T03:50:24;15.70;99.90
24904;DHT22;12960;50.322;11.124;2022-08-14T03:51:25;15.70;99.90
24904;DHT22;12960;50.322;11.124;2022-08-14T03:52:28;15.70;99.90
24904;DHT22;12960;50.322;11.124;2022-08-14T03:53:29;15.80;99.90
24904;DHT22;12960;50.322;11.124;2022-08-14T03:54:31;15.70;99.90
24904;DHT22;12960;50.322;11.124;2022-08-14T03:55:35;15.70;99.90
24904;DHT22;12960;50.322;11.124;2022-08-14T03:56:38;15.70;99.90
24904;DHT22;12960;50.322;11.124;2022-08-14T03:57:44;15.80;99.90
24904;DHT22;12960;50.322;11.124;2022-08-14T03:58:47;15.80;99.90
24904;DHT22;12960;50.322;11.124;2022-08-14T03:59:55;15.80;99.90
24904;DHT22;12960;50.322;11.124;2022-08-14T04:00:56;15.80;99.90
24904;DHT22;12960;50.322;11.124;2022-08-14T04:02:00;15.80;99.90
24904;DHT22;12960;50.322;11.124;2022-08-14T04:03:04;15.90;99.90
24904;DHT22;12960;50.322;11.124;2022-08-14T04:04:07;15.90;99.90
24904;DHT22;12960;50.322;11.124;2022-08-14T04:05:08;15.90;99.90
24904;DHT22;12960;50.322;11.124;2022-08-14T04:06:10;15.80;99.90
24904;DHT22;12960;50.322;11.124;2022-08-14T04:07:11;15.80;99.90
24904;DHT22;12960;50.322;11.124;2022-08-14T04:08:12;15.80;99.90
24904;DHT22;12960;50.322;11.124;2022-08-14T04:09:13;15.80;99.90
24904;DHT22;12960;50.322;11.124;2022-08-14T04:10:14;15.90;99.90
24904;DHT22;12960;50.322;11.124;2022-08-14T04:11:18;15.90;99.90
24904;DHT22;12960;50.322;11.124;2022-08-14T04:12:19;15.90;99.90
24904;DHT22;12960;50.322;11.124;2022-08-14T04:13:21;15.90;99.90
24904;DHT22;12960;50.322;11.124;2022-08-14T04:14:22;15.90;99.90
24904;DHT22;12960;50.322;11.124;2022-08-14T04:15:23;15.90;99.90
24904;DHT22;12960;50.322;11.124;2022-08-14T04:16:25;15.90;99.90
24904;DHT22;12960;50.322;11.124;2022-08-14T04:17:26;15.90;99.90
24904;DHT22;12960;50.322;11.124;2022-08-14T04:18:29;15.90;99.90
24904;DHT22;12960;50.322;11.124;2022-08-14T04:19:30;15.90;99.90
24904;DHT22;12960;50.322;11.124;2022-08-14T04:20:32;15.90;99.90
24904;DHT22;12960;50.322;11.124;2022-08-14T04:21:33;15.90;99.90
24904;DHT22;12960;50.322;11.124;2022-08-14T04:22:34;15.90;99.90
24904;DHT22;12960;50.322;11.124;2022-08-14T04:23:35;15.90;99.90
24904;DHT22;12960;50.322;11.124;2022-08-14T04:24:36;15.90;99.90
24904;DHT22;12960;50.322;11.124;2022-08-14T04:25:40;16.00;99.90
24904;DHT22;12960;50.322;11.124;2022-08-14T04:26:44;15.90;99.90
24904;DHT22;12960;50.322;11.124;2022-08-14T04:27:45;16.00;99.90
24904;DHT22;12960;50.322;11.124;2022-08-14T04:28:48;16.00;99.90
24904;DHT22;12960;50.322;11.124;2022-08-14T04:29:50;16.00;99.90
24904;DHT22;12960;50.322;11.124;2022-08-14T04:30:54;16.00;99.90
24904;DHT22;12960;50.322;11.124;2022-08-14T04:31:55;16.00;99.90
24904;DHT22;12960;50.322;11.124;2022-08-14T04:32:57;16.00;99.90
24904;DHT22;12960;50.322;11.124;2022-08-14T04:33:58;16.10;99.90
24904;DHT22;12960;50.322;11.124;2022-08-14T04:34:59;16.10;99.90
24904;DHT22;12960;50.322;11.124;2022-08-14T04:36:01;16.20;99.90
24904;DHT22;12960;50.322;11.124;2022-08-14T04:37:03;16.20;99.90
24904;DHT22;12960;50.322;11.124;2022-08-14T04:38:23;16.20;99.90
24904;DHT22;12960;50.322;11.124;2022-08-14T04:39:42;16.20;99.90
24904;DHT22;12960;50.322;11.124;2022-08-14T04:41:05;16.20;99.90
24904;DHT22;12960;50.322;11.124;2022-08-14T04:42:25;16.30;99.90
24904;DHT22;12960;50.322;11.124;2022-08-14T04:43:44;16.30;99.90
24904;DHT22;12960;50.322;11.124;2022-08-14T04:44:45;16.30;99.90
24904;DHT22;12960;50.322;11.124;2022-08-14T04:45:46;16.30;99.90
24904;DHT22;12960;50.322;11.124;2022-08-14T04:46:48;16.30;99.90
24904;DHT22;12960;50.322;11.124;2022-08-14T04:48:15;16.30;99.90
24904;DHT22;12960;50.322;11.124;2022-08-14T04:49:16;16.20;99.90
24904;DHT22;12960;50.322;11.124;2022-08-14T04:50:17;16.20;99.90
24904;DHT22;12960;50.322;11.124;2022-08-14T04:51:20;16.20;99.90
24904;DHT22;12960;50.322;11.124;2022-08-14T04:52:21;16.20;99.90
24904;DHT22;12960;50.322;11.124;2022-08-14T04:53:25;16.20;99.90
24904;DHT22;12960;50.322;11.124;2022-08-14T04:54:26;16.20;99.90
24904;DHT22;12960;50.322;11.124;2022-08-14T04:55:28;16.10;99.90
24904;DHT22;12960;50.322;11.124;2022-08-14T04:56:29;16.10;99.90
24904;DHT22;12960;50.322;11.124;2022-08-14T04:57:30;16.10;99.90
24904;DHT22;12960;50.322;11.124;2022-08-14T04:58:33;16.10;99.90
24904;DHT22;12960;50.322;11.124;2022-08-14T04:59:34;16.10;99.90
24904;DHT22;12960;50.322;11.124;2022-08-14T05:00:35;16.10;99.90
24904;DHT22;12960;50.322;11.124;2022-08-14T05:01:40;16.10;99.90
24904;DHT22;12960;50.322;11.124;2022-08-14T05:02:43;16.10;99.90
24904;DHT22;12960;50.322;11.124;2022-08-14T05:03:44;16.10;99.90
24904;DHT22;12960;50.322;11.124;2022-08-14T05:04:47;16.10;99.90
24904;DHT22;12960;50.322;11.124;2022-08-14T05:05:50;16.10;99.90
24904;DHT22;12960;50.322;11.124;2022-08-14T05:06:52;16.10;99.90
24904;DHT22;12960;50.322;11.124;2022-08-14T05:07:54;16.10;99.90
24904;DHT22;12960;50.322;11.124;2022-08-14T05:08:56;16.10;99.90
24904;DHT22;12960;50.322;11.124;2022-08-14T05:09:57;16.10;99.90
24904;DHT22;12960;50.322;11.124;2022-08-14T05:10:59;16.10;99.90
24904;DHT22;12960;50.322;11.124;2022-08-14T05:12:00;16.10;99.90
24904;DHT22;12960;50.322;11.124;2022-08-14T05:13:02;16.20;99.90
24904;DHT22;12960;50.322;11.124;2022-08-14T05:14:05;16.30;99.90
24904;DHT22;12960;50.322;11.124;2022-08-14T05:15:06;16.30;99.90
24904;DHT22;12960;50.322;11.124;2022-08-14T05:16:10;16.30;99.90
24904;DHT22;12960;50.322;11.124;2022-08-14T05:17:15;16.40;99.90
24904;DHT22;12960;50.322;11.124;2022-08-14T05:18:24;16.50;99.90
24904;DHT22;12960;50.322;11.124;2022-08-14T05:19:25;16.60;99.90
24904;DHT22;12960;50.322;11.124;2022-08-14T05:20:27;16.60;99.90
24904;DHT22;12960;50.322;11.124;2022-08-14T05:21:29;16.60;99.90
24904;DHT22;12960;50.322;11.124;2022-08-14T05:22:30;16.70;99.90
24904;DHT22;12960;50.322;11.124;2022-08-14T05:23:39;16.80;99.90
24904;DHT22;12960;50.322;11.124;2022-08-14T05:24:40;16.90;99.90
24904;DHT22;12960;50.322;11.124;2022-08-14T05:25:45;17.00;99.90
24904;DHT22;12960;50.322;11.124;2022-08-14T05:26:50;17.00;99.90
24904;DHT22;12960;50.322;11.124;2022-08-14T05:27:54;17.10;99.90
24904;DHT22;12960;50.322;11.124;2022-08-14T05:29:00;17.30;99.90
24904;DHT22;12960;50.322;11.124;2022-08-14T05:30:04;17.30;99.90
24904;DHT22;12960;50.322;11.124;2022-08-14T05:31:15;17.40;99.90
24904;DHT22;12960;50.322;11.124;2022-08-14T05:32:20;17.40;99.90
24904;DHT22;12960;50.322;11.124;2022-08-14T05:33:25;17.50;99.90
24904;DHT22;12960;50.322;11.124;2022-08-14T05:34:28;17.50;99.90
24904;DHT22;12960;50.322;11.124;2022-08-14T05:35:30;17.50;99.90
24904;DHT22;12960;50.322;11.124;2022-08-14T05:36:32;17.60;99.90
24904;DHT22;12960;50.322;11.124;2022-08-14T05:37:33;17.70;99.90
24904;DHT22;12960;50.322;11.124;2022-08-14T05:38:44;17.70;99.90
24904;DHT22;12960;50.322;11.124;2022-08-14T05:39:54;17.90;99.90
24904;DHT22;12960;50.322;11.124;2022-08-14T05:40:55;18.20;99.90
24904;DHT22;12960;50.322;11.124;2022-08-14T05:41:57;18.30;99.90
24904;DHT22;12960;50.322;11.124;2022-08-14T05:42:58;18.50;99.90
24904;DHT22;12960;50.322;11.124;2022-08-14T05:44:04;18.60;99.90
24904;DHT22;12960;50.322;11.124;2022-08-14T05:45:06;18.70;99.90
24904;DHT22;12960;50.322;11.124;2022-08-14T05:46:15;18.80;99.90
24904;DHT22;12960;50.322;11.124;2022-08-14T05:47:18;18.90;99.90
24904;DHT22;12960;50.322;11.124;2022-08-14T05:48:19;18.90;99.90
24904;DHT22;12960;50.322;11.124;2022-08-14T05:49:20;19.00;99.90
24904;DHT22;12960;50.322;11.124;2022-08-14T05:50:21;19.00;99.90
24904;DHT22;12960;50.322;11.124;2022-08-14T05:51:23;19.10;99.90
24904;DHT22;12960;50.322;11.124;2022-08-14T05:52:24;19.10;99.90
24904;DHT22;12960;50.322;11.124;2022-08-14T05:53:26;19.20;99.90
24904;DHT22;12960;50.322;11.124;2022-08-14T05:54:28;19.30;99.90
24904;DHT22;12960;50.322;11.124;2022-08-14T05:55:36;19.40;99.90
24904;DHT22;12960;50.322;11.124;2022-08-14T05:56:37;19.40;99.90
24904;DHT22;12960;50.322;11.124;2022-08-14T05:58:51;19.50;99.90
24904;DHT22;12960;50.322;11.124;2022-08-14T05:59:52;19.60;99.90
24904;DHT22;12960;50.322;11.124;2022-08-14T06:00:53;19.70;99.90
24904;DHT22;12960;50.322;11.124;2022-08-14T06:01:55;19.70;99.90
24904;DHT22;12960;50.322;11.124;2022-08-14T06:03:00;19.80;99.90
24904;DHT22;12960;50.322;11.124;2022-08-14T06:04:05;19.80;99.90
24904;DHT22;12960;50.322;11.124;2022-08-14T06:05:06;19.90;99.90
24904;DHT22;12960;50.322;11.124;2022-08-14T06:06:10;20.00;99.90
24904;DHT22;12960;50.322;11.124;2022-08-14T06:07:11;20.10;92.10
24904;DHT22;12960;50.322;11.124;2022-08-14T06:08:18;20.10;87.70
24904;DHT22;12960;50.322;11.124;2022-08-14T06:09:19;20.20;81.20
24904;DHT22;12960;50.322;11.124;2022-08-14T06:10:20;20.20;65.40
24904;DHT22;12960;50.322;11.124;2022-08-14T06:11:21;20.20;68.10
24904;DHT22;12960;50.322;11.124;2022-08-14T06:12:22;20.30;57.80
24904;DHT22;12960;50.322;11.124;2022-08-14T06:13:26;20.30;31.70
24904;DHT22;12960;50.322;11.124;2022-08-14T06:14:27;20.40;25.60
24904;DHT22;12960;50.322;11.124;2022-08-14T06:15:29;20.40;12.50
24904;DHT22;12960;50.322;11.124;2022-08-14T06:16:30;20.50;1.00
24904;DHT22;12960;50.322;11.124;2022-08-14T06:17:31;20.50;1.00
24904;DHT22;12960;50.322;11.124;2022-08-14T06:18:33;20.60;1.00
24904;DHT22;12960;50.322;11.124;2022-08-14T06:19:35;20.60;1.00
24904;DHT22;12960;50.322;11.124;2022-08-14T06:20:37;20.60;1.00
24904;DHT22;12960;50.322;11.124;2022-08-14T06:21:39;20.70;1.00
24904;DHT22;12960;50.322;11.124;2022-08-14T06:22:43;20.70;1.00
24904;DHT22;12960;50.322;11.124;2022-08-14T06:23:45;20.70;1.00
24904;DHT22;12960;50.322;11.124;2022-08-14T06:24:46;20.70;1.00
24904;DHT22;12960;50.322;11.124;2022-08-14T06:25:47;20.70;1.00
24904;DHT22;12960;50.322;11.124;2022-08-14T06:26:48;20.80;1.00
24904;DHT22;12960;50.322;11.124;2022-08-14T06:27:50;20.80;1.00
24904;DHT22;12960;50.322;11.124;2022-08-14T06:28:51;20.90;1.00
24904;DHT22;12960;50.322;11.124;2022-08-14T06:29:52;20.90;1.00
24904;DHT22;12960;50.322;11.124;2022-08-14T06:30:53;20.90;1.00
24904;DHT22;12960;50.322;11.124;2022-08-14T06:31:57;21.00;1.00
24904;DHT22;12960;50.322;11.124;2022-08-14T06:32:59;21.00;1.00
24904;DHT22;12960;50.322;11.124;2022-08-14T06:34:03;21.00;1.00
24904;DHT22;12960;50.322;11.124;2022-08-14T06:35:06;21.10;1.00
24904;DHT22;12960;50.322;11.124;2022-08-14T06:36:07;21.10;1.00